Time;durP1;ratioP1;P1;durP2;ratioP2;P2;SDS_P1;SDS_P2;PMS_P1;PMS_P2;Temp;Humidity;BMP_temperature;BMP_pressure;BME280_temperature;BME280_humidity;BME280_pressure;Samples;Min_cycle;Max_cycle;Signal;HPM_P1;HPM_P2
2022/05/17 00:01:33;;;;;;;9.50;2.75;;;;;;;22.09;54.16;101347.97;5049509;28;20053;-62
2022/05/17 00:04:01;;;;;;;6.25;3.03;;;;;;;21.94;54.69;101354.56;5033258;28;20065;-62
2022/05/17 00:06:29;;;;;;;8.40;3.33;;;;;;;21.82;55.29;101348.31;5060980;28;20052;-67
2022/05/17 00:08:59;;;;;;;10.18;3.83;;;;;;;21.93;55.55;101350.09;5069100;28;20511;-66
2022/05/17 00:11:28;;;;;;;7.35;3.03;;;;;;;22.04;55.35;101353.91;5064749;28;20087;-66
2022/05/17 00:13:55;;;;;;;6.88;2.72;;;;;;;22.01;55.25;101351.03;5073023;28;20037;-67
2022/05/17 00:16:23;;;;;;;8.23;3.00;;;;;;;21.97;55.53;101348.19;5065584;28;20056;-67
2022/05/17 00:18:50;;;;;;;11.60;3.60;;;;;;;;;;5057187;28;20059;-67
2022/05/17 00:21:18;;;;;;;8.43;3.45;;;;;;;21.86;56.47;101352.78;5074543;28;20074;-67
2022/05/17 00:23:45;;;;;;;8.38;3.10;;;;;;;21.79;56.38;101340.66;5065147;28;20052;-67
2022/05/17 00:26:12;;;;;;;7.72;3.30;;;;;;;21.82;56.61;101345.50;5063628;28;20048;-66
2022/05/17 00:28:42;;;;;;;7.65;3.13;;;;;;;21.76;56.60;101344.97;5060678;28;20063;-67
2022/05/17 00:31:10;;;;;;;13.05;3.38;;;;;;;21.74;56.95;101346.53;5063380;28;20068;-68
2022/05/17 00:33:37;;;;;;;8.75;2.75;;;;;;;21.74;56.98;101338.13;5067236;28;20083;-67
2022/05/17 00:36:05;;;;;;;9.48;3.33;;;;;;;21.71;57.42;101336.06;5065645;28;20059;-68
2022/05/17 00:38:32;;;;;;;9.23;3.58;;;;;;;21.55;57.59;101336.16;5063145;28;20052;-66
2022/05/17 00:41:00;;;;;;;7.40;3.10;;;;;;;21.61;57.64;101343.09;5054037;28;20056;-67
2022/05/17 00:43:29;;;;;;;13.00;4.55;;;;;;;21.73;57.07;101334.50;5068776;28;20060;-67
2022/05/17 00:46:01;;;;;;;7.53;3.17;;;;;;;21.87;56.59;101328.38;5064873;28;20083;-67
2022/05/17 00:48:28;;;;;;;8.60;3.25;;;;;;;21.89;57.41;101331.59;5042945;28;20380;-67
2022/05/17 00:50:56;;;;;;;9.70;3.83;;;;;;;21.84;56.89;101327.13;5060608;28;20531;-67
2022/05/17 00:53:27;;;;;;;7.45;3.17;;;;;;;21.87;57.13;101328.38;5051025;28;20072;-66
2022/05/17 00:56:00;;;;;;;11.60;4.13;;;;;;;21.54;57.14;101330.94;5086223;28;20056;-67
2022/05/17 00:58:36;;;;;;;9.32;3.38;;;;;;;21.38;57.86;101330.22;5085673;28;20504;-68
2022/05/17 01:01:07;;;;;;;9.02;3.63;;;;;;;21.56;57.58;101332.19;5068187;28;20059;-67
2022/05/17 01:03:42;;;;;;;10.50;3.08;;;;;;;21.66;57.09;101328.78;5085646;28;20542;-66
2022/05/17 01:06:10;;;;;;;8.52;3.17;;;;;;;21.67;56.78;101321.97;5053380;28;20060;-66
2022/05/17 01:08:37;;;;;;;8.25;3.22;;;;;;;21.62;57.21;101329.91;5057491;28;20048;-66
2022/05/17 01:11:04;;;;;;;9.40;3.10;;;;;;;21.12;58.26;101328.94;5053726;28;20044;-67
2022/05/17 01:16:18;;;;;;;6.00;3.00;;;;;;;21.18;58.72;101324.66;5056805;28;20057;-68
2022/05/17 01:18:45;;;;;;;10.45;3.20;;;;;;;21.21;58.55;101323.13;5067983;28;20044;-66
2022/05/17 01:21:13;;;;;;;11.70;3.40;;;;;;;21.27;58.99;101327.22;5073176;28;20076;-68
2022/05/17 01:23:40;;;;;;;12.80;3.42;;;;;;;21.16;59.04;101315.84;5056928;28;20052;-66
2022/05/17 01:26:11;;;;;;;7.43;2.85;;;;;;;21.27;58.67;101315.22;5051674;28;20060;-66
2022/05/17 01:28:39;;;;;;;9.80;3.15;;;;;;;21.15;59.14;101318.97;5051922;28;20053;-67
2022/05/17 01:31:07;;;;;;;10.70;3.50;;;;;;;21.13;59.68;101324.16;5043653;28;20076;-67
2022/05/17 01:33:37;;;;;;;8.90;2.92;;;;;;;21.05;59.39;101320.41;5044991;28;20056;-66
2022/05/17 01:36:07;;;;;;;9.00;3.20;;;;;;;21.32;58.02;101323.31;5071013;28;20053;-66
2022/05/17 01:38:35;;;;;;;7.57;2.83;;;;;;;21.11;58.85;101320.91;5049708;28;20063;-67
2022/05/17 01:41:03;;;;;;;10.05;3.25;;;;;;;20.86;59.21;101327.94;5064271;28;20052;-67
2022/05/17 01:43:33;;;;;;;8.82;3.10;;;;;;;21.24;58.73;101328.78;5067186;28;20041;-67
2022/05/17 01:46:06;;;;;;;9.02;3.17;;;;;;;21.15;58.71;101321.78;5052170;28;20056;-67
2022/05/17 01:48:35;;;;;;;6.05;2.90;;;;;;;20.84;59.62;101324.72;5053976;28;20049;-68
2022/05/17 01:51:04;;;;;;;6.30;2.72;;;;;;;21.03;58.76;101319.97;5051155;28;20512;-67
2022/05/17 01:53:32;;;;;;;7.25;2.67;;;;;;;20.92;59.28;101316.09;5071630;28;20059;-67
2022/05/17 01:56:04;;;;;;;10.50;2.97;;;;;;;21.11;59.16;101323.72;5073390;28;20060;-67
2022/05/17 01:58:32;;;;;;;8.48;2.65;;;;;;;20.96;60.45;101338.56;5073104;28;20142;-68
2022/05/17 02:01:00;;;;;;;7.35;2.95;;;;;;;21.21;60.07;101349.16;5071073;28;20408;-66
2022/05/17 02:03:27;;;;;;;9.00;3.10;;;;;;;20.90;58.50;101351.25;5048948;28;20055;-67
2022/05/17 02:05:54;;;;;;;6.13;2.70;;;;;;;21.21;58.60;101340.75;5060083;28;20076;-67
2022/05/17 02:08:23;;;;;;;8.48;2.88;;;;;;;21.27;59.91;101358.88;5064033;28;20041;-67
2022/05/17 02:10:50;;;;;;;7.65;2.53;;;;;;;21.24;58.24;101347.59;5069252;28;20068;-67
2022/05/17 02:13:18;;;;;;;8.07;2.35;;;;;;;21.21;60.70;101346.34;5059377;28;20571;-68
2022/05/17 02:15:45;;;;;;;5.50;2.70;;;;;;;21.10;58.06;101334.09;5052971;28;20056;-67
2022/05/17 02:18:12;;;;;;;8.98;2.80;;;;;;;21.25;59.19;101341.59;5095254;28;20048;-66
2022/05/17 02:20:40;;;;;;;5.55;2.72;;;;;;;21.46;60.27;101355.25;5072880;28;20055;-66
2022/05/17 02:23:07;;;;;;;15.95;2.53;;;;;;;21.43;57.65;101355.97;5060579;28;20111;-66
2022/05/17 02:25:35;;;;;;;8.10;2.20;;;;;;;21.43;57.27;101355.97;5053561;28;20049;-66
2022/05/17 02:28:08;;;;;;;5.53;2.40;;;;;;;21.46;56.31;101357.22;5063999;28;20056;-67
2022/05/17 02:30:36;;;;;;;8.88;2.65;;;;;;;21.46;58.72;101355.25;5059199;28;20045;-67
2022/05/17 02:33:04;;;;;;;6.70;2.03;;;;;;;21.41;56.38;101347.13;5075280;28;20044;-68
2022/05/17 02:35:31;;;;;;;7.60;2.60;;;;;;;21.35;56.29;101345.81;5045650;28;20060;-66
2022/05/17 02:37:59;;;;;;;6.50;2.65;;;;;;;21.48;56.18;101346.47;5057307;28;20045;-67
2022/05/17 02:40:26;;;;;;;6.82;2.05;;;;;;;21.29;56.09;101344.47;5072892;28;20053;-65
2022/05/17 02:42:54;;;;;;;7.95;2.60;;;;;;;21.45;55.79;101352.78;5068249;28;20492;-67
2022/05/17 02:45:21;;;;;;;9.15;2.67;;;;;;;21.37;55.39;101342.63;5062073;28;20065;-67
2022/05/17 02:47:50;;;;;;;4.80;2.17;;;;;;;21.31;56.21;101352.50;5058704;28;20044;-67
2022/05/17 02:50:18;;;;;;;6.28;2.10;;;;;;;20.87;56.85;101338.78;5076302;28;20064;-66
2022/05/17 02:52:46;;;;;;;8.48;3.03;;;;;;;21.00;56.74;101340.31;5062971;28;20119;-66
2022/05/17 02:55:14;;;;;;;7.28;2.88;;;;;;;20.89;56.92;101339.22;5063566;28;20056;-66
2022/05/17 02:57:42;;;;;;;9.60;2.97;;;;;;;20.92;57.12;101338.50;5061314;28;20053;-67
2022/05/17 03:00:12;;;;;;;6.68;2.28;;;;;;;20.86;56.89;101341.97;5068166;28;20052;-67
2022/05/17 03:02:40;;;;;;;8.13;2.55;;;;;;;20.84;57.04;101341.50;5054760;28;20465;-66
2022/05/17 03:05:08;;;;;;;7.05;2.70;;;;;;;20.78;57.61;101337.41;5063845;28;20056;-67
2022/05/17 03:07:35;;;;;;;6.32;2.72;;;;;;;20.83;57.69;101337.91;5065377;28;20075;-67
2022/05/17 03:10:03;;;;;;;7.82;2.85;;;;;;;21.00;56.81;101333.88;5080425;28;20056;-67
2022/05/17 03:12:30;;;;;;;6.75;2.60;;;;;;;21.15;56.77;101335.78;5074373;28;20056;-67
2022/05/17 03:14:59;;;;;;;10.55;2.92;;;;;;;21.00;56.99;101334.72;5071957;28;20053;-67
2022/05/17 03:17:27;;;;;;;8.05;2.97;;;;;;;21.11;56.24;101332.13;5066660;28;20044;-67
2022/05/17 03:19:55;;;;;;;8.10;2.50;;;;;;;21.23;56.05;101337.56;5064790;28;20051;-66
2022/05/17 03:22:23;;;;;;;8.23;2.97;;;;;;;21.36;55.61;101339.00;5055675;28;20059;-67
2022/05/17 03:24:51;;;;;;;11.18;2.97;;;;;;;21.38;55.29;101331.06;5067560;28;20060;-67
2022/05/17 03:27:39;;;;;;;9.55;3.00;;;;;;;21.24;55.68;101340.00;5073370;28;20468;-66
2022/05/17 03:30:07;;;;;;;11.75;3.33;;;;;;;20.99;56.77;101335.88;5060312;28;20053;-67
2022/05/17 03:32:34;;;;;;;10.30;2.90;;;;;;;20.77;57.32;101333.78;5062946;28;20071;-67
2022/05/17 03:35:02;;;;;;;7.85;3.28;;;;;;;20.73;57.75;101334.88;5072840;28;20071;-67
2022/05/17 03:37:29;;;;;;;8.50;2.78;;;;;;;20.67;58.06;101339.97;5064690;28;20053;-67
2022/05/17 03:39:57;;;;;;;12.10;2.97;;;;;;;20.59;58.37;101340.16;5075199;28;20132;-67
2022/05/17 03:42:24;;;;;;;12.13;3.03;;;;;;;20.56;58.77;101338.91;5064595;28;20083;-62
2022/05/17 03:44:51;;;;;;;5.85;2.67;;;;;;;20.61;58.71;101333.00;5055397;28;20061;-63
2022/05/17 03:47:19;;;;;;;10.05;2.78;;;;;;;20.58;58.73;101333.75;5045516;28;20060;-62
2022/05/17 03:49:47;;;;;;;11.10;3.20;;;;;;;20.45;59.23;101339.84;5070820;28;20043;-61
2022/05/17 03:52:15;;;;;;;10.85;3.30;;;;;;;20.49;59.01;101338.75;5075646;28;20060;-62
2022/05/17 03:54:42;;;;;;;10.50;3.22;;;;;;;20.46;59.39;101341.47;5040085;28;20053;-61
2022/05/17 03:57:09;;;;;;;10.13;3.05;;;;;;;20.66;59.13;101340.34;5055112;28;20057;-62
2022/05/17 03:59:45;;;;;;;11.73;3.38;;;;;;;20.58;59.82;101342.16;5072573;28;20057;-61
2022/05/17 04:02:13;;;;;;;8.05;2.90;;;;;;;20.40;59.82;101342.94;5057474;28;20052;-61
2022/05/17 04:04:40;;;;;;;9.13;3.05;;;;;;;20.52;60.05;101345.59;5054331;28;20072;-62
2022/05/17 04:07:08;;;;;;;6.35;3.05;;;;;;;20.41;60.64;101344.53;5054626;28;20056;-61
2022/05/17 04:09:35;;;;;;;9.25;3.58;;;;;;;20.30;60.81;101343.47;5066315;28;20049;-62
2022/05/17 04:12:03;;;;;;;8.68;3.28;;;;;;;20.20;61.31;101344.84;5086429;28;20048;-61
2022/05/17 04:14:33;;;;;;;7.45;2.88;;;;;;;20.26;61.12;101348.19;5054168;28;20056;-63
2022/05/17 04:17:01;;;;;;;9.80;3.33;;;;;;;20.16;61.07;101355.13;5051829;28;20408;-63
2022/05/17 04:19:28;;;;;;;8.18;3.15;;;;;;;20.23;61.36;101349.72;5076447;28;20060;-62
2022/05/17 04:21:58;;;;;;;5.65;3.00;;;;;;;20.13;61.79;101351.06;5060208;28;20049;-67
2022/05/17 04:24:26;;;;;;;11.13;3.63;;;;;;;20.17;61.45;101353.97;5054270;28;20059;-67
2022/05/17 04:26:54;;;;;;;10.45;3.42;;;;;;;19.89;62.60;101348.44;5086154;28;20053;-67
2022/05/17 04:29:21;;;;;;;6.65;3.00;;;;;;;20.10;63.07;101359.38;5062081;28;20407;-67
2022/05/17 04:31:49;;;;;;;10.10;3.15;;;;;;;20.23;61.79;101360.09;5070389;28;20053;-66
2022/05/17 04:34:16;;;;;;;10.07;3.50;;;;;;;20.35;61.50;101354.38;5063555;28;20399;-67
2022/05/17 04:36:43;;;;;;;8.82;3.20;;;;;;;20.23;61.85;101357.28;5071361;28;20076;-67
2022/05/17 04:39:10;;;;;;;12.90;3.63;;;;;;;19.88;62.87;101352.41;5052583;28;20045;-67
2022/05/17 04:41:38;;;;;;;8.57;3.10;;;;;;;20.05;62.15;101363.22;5067435;28;20492;-67
2022/05/17 04:44:05;;;;;;;10.07;3.22;;;;;;;19.92;62.77;101363.69;5055321;28;20045;-67
2022/05/17 04:46:32;;;;;;;8.00;3.30;;;;;;;20.09;62.32;101368.91;5052866;28;20064;-66
2022/05/17 04:49:00;;;;;;;10.95;3.33;;;;;;;20.07;63.23;101372.06;5053912;28;20386;-68
2022/05/17 04:51:27;;;;;;;7.18;3.00;;;;;;;20.24;62.87;101367.31;5069913;28;20071;-66
2022/05/17 04:53:54;;;;;;;7.60;3.47;;;;;;;20.08;62.88;101370.09;5064060;28;20052;-67
2022/05/17 04:56:22;;;;;;;8.80;3.53;;;;;;;20.10;63.80;101376.16;5054018;28;20052;-61
2022/05/17 04:58:49;;;;;;;11.20;3.47;;;;;;;20.08;62.49;101370.09;5053679;28;20053;-62
2022/05/17 05:01:16;;;;;;;10.00;3.95;;;;;;;19.93;62.90;101371.72;5051426;28;20060;-62
2022/05/17 05:03:44;;;;;;;9.23;3.92;;;;;;;19.97;63.26;101372.63;5062155;28;20062;-61
2022/05/17 05:06:11;;;;;;;7.95;3.22;;;;;;;19.99;63.20;101383.44;5069575;28;20072;-62
2022/05/17 05:08:38;;;;;;;12.35;4.22;;;;;;;19.95;63.07;101383.34;5051344;28;20045;-63
2022/05/17 05:11:05;;;;;;;11.80;4.05;;;;;;;20.34;63.34;101375.16;5053348;28;20053;-61
2022/05/17 05:13:33;;;;;;;10.85;3.80;;;;;;;20.17;62.53;101384.75;5051901;28;20053;-61
2022/05/17 05:16:00;;;;;;;8.80;3.45;;;;;;;20.27;62.11;101387.00;5052474;28;20524;-63
2022/05/17 05:18:27;;;;;;;11.55;4.40;;;;;;;20.30;62.54;101393.81;5062559;28;20055;-63
2022/05/17 05:21:09;;;;;;;11.52;4.40;;;;;;;20.63;62.51;101391.44;5073594;28;20049;-63
2022/05/17 05:23:38;;;;;;;14.20;4.60;;;;;;;20.64;61.92;101384.66;5062222;28;20352;-62
2022/05/17 05:26:06;;;;;;;14.88;5.63;;;;;;;20.73;62.31;101400.06;5073071;28;20048;-62
2022/05/17 05:28:35;;;;;;;13.05;3.92;;;;;;;20.95;62.14;101390.16;5073425;28;20408;-62
2022/05/17 05:31:03;;;;;;;10.75;3.60;;;;;;;21.14;61.43;101399.44;5052376;28;20060;-63
2022/05/17 05:33:34;;;;;;;14.25;4.00;;;;;;;20.97;60.82;101397.00;5058566;28;20380;-63
2022/05/17 05:36:02;;;;;;;14.50;3.72;;;;;;;20.87;60.86;101392.00;5055691;28;20064;-62
2022/05/17 05:38:29;;;;;;;15.55;4.10;;;;;;;21.00;60.71;101393.53;5052533;28;20139;-61
2022/05/17 05:40:57;;;;;;;13.25;4.28;;;;;;;20.65;61.30;101403.91;5051552;28;20050;-63
2022/05/17 05:43:25;;;;;;;13.15;4.38;;;;;;;20.68;61.72;101405.13;5053642;28;20490;-62
2022/05/17 05:45:53;;;;;;;19.90;5.07;;;;;;;21.00;62.89;101413.13;5052008;28;20057;-61
2022/05/17 05:48:20;;;;;;;17.00;8.20;;;;;;;21.12;65.14;101413.00;5061635;28;20053;-68
2022/05/17 05:50:47;;;;;;;10.13;5.68;;;;;;;20.94;63.09;101419.34;5055338;28;20053;-68
2022/05/17 05:53:15;;;;;;;14.60;4.80;;;;;;;21.22;68.75;101420.00;5061703;28;20539;-68
2022/05/17 05:55:43;;;;;;;13.15;4.82;;;;;;;20.78;62.08;101415.78;5055912;28;20053;-67
2022/05/17 05:58:10;;;;;;;12.90;5.82;;;;;;;21.16;62.91;101419.50;5061222;28;20055;-68
2022/05/17 06:00:38;;;;;;;10.38;4.13;;;;;;;21.19;62.12;101421.56;5039520;28;20072;-63
2022/05/17 06:03:06;;;;;;;13.68;4.30;;;;;;;21.44;61.03;101413.66;5060769;28;20041;-64
2022/05/17 06:05:34;;;;;;;14.50;4.53;;;;;;;21.55;61.50;101416.69;5057442;28;20064;-63
2022/05/17 06:08:01;;;;;;;9.68;4.15;;;;;;;21.65;61.61;101407.66;5063236;28;20048;-62
2022/05/17 06:10:28;;;;;;;11.13;3.75;;;;;;;21.62;60.62;101419.63;5073279;28;20045;-64
2022/05/17 06:12:56;;;;;;;9.93;3.97;;;;;;;21.80;60.94;101410.41;5063793;28;20737;-63
2022/05/17 06:15:23;;;;;;;11.48;3.60;;;;;;;21.98;62.78;101422.75;5054484;28;20056;-64
2022/05/17 06:17:51;;;;;;;14.13;4.78;;;;;;;22.14;63.06;101415.00;5062194;28;20053;-63
2022/05/17 06:20:18;;;;;;;19.25;12.27;;;;;;;22.02;61.12;101429.22;5068939;28;20040;-63
2022/05/17 06:22:47;;;;;;;14.48;5.22;;;;;;;22.03;62.18;101422.44;5062048;28;20063;-62
2022/05/17 06:25:15;;;;;;;13.50;4.28;;;;;;;22.34;62.06;101416.56;5054929;28;20049;-63
2022/05/17 06:27:42;;;;;;;11.23;3.72;;;;;;;22.38;60.64;101416.63;5052436;28;20072;-63
2022/05/17 06:30:11;;;;;;;16.13;3.88;;;;;;;22.43;60.76;101418.28;5046944;28;20045;-66
2022/05/17 06:32:39;;;;;;;12.60;3.60;;;;;;;21.83;55.95;101422.84;5047359;28;20053;-65
2022/05/17 06:35:07;;;;;;;9.63;3.38;;;;;;;21.77;53.96;101419.53;5067195;28;20435;-65
2022/05/17 06:37:35;;;;;;;8.85;2.65;;;;;;;21.85;54.09;101426.91;5051749;28;20193;-65
2022/05/17 06:40:03;;;;;;;10.75;2.55;;;;;;;22.15;55.07;101424.25;5053662;28;20496;-65
2022/05/17 06:42:32;;;;;;;11.57;2.70;;;;;;;22.05;51.05;101419.25;5066394;28;20171;-66
2022/05/17 06:44:59;;;;;;;10.30;2.65;;;;;;;21.82;52.11;101422.06;5062756;28;20052;-66
2022/05/17 06:47:27;;;;;;;10.18;2.90;;;;;;;21.97;51.60;101421.13;5064012;28;20099;-65
2022/05/17 06:49:54;;;;;;;9.15;2.60;;;;;;;21.86;51.16;101417.31;5061380;28;20253;-67
2022/05/17 06:52:39;;;;;;;9.45;2.78;;;;;;;21.29;53.21;101414.53;5061215;28;20080;-72
2022/05/17 06:55:31;;;;;;;11.15;3.20;;;;;;;;;;5057188;28;20047;-67
2022/05/17 06:57:59;;;;;;;11.35;2.55;;;;;;;21.98;52.84;101414.34;5068266;28;20068;-66
2022/05/17 07:00:27;;;;;;;10.93;2.75;;;;;;;21.85;51.11;101414.88;5056359;28;20049;-66
2022/05/17 07:03:00;;;;;;;11.57;3.35;;;;;;;22.02;50.91;101420.81;5056154;28;20064;-68
2022/05/17 07:05:29;;;;;;;9.70;3.33;;;;;;;22.16;50.12;101414.63;5061212;28;20056;-66
2022/05/17 07:08:02;;;;;;;13.80;2.42;;;;;;;22.27;49.64;101415.63;5067296;28;20041;-67
2022/05/17 07:13:16;;;;;;;6.35;2.30;;;;;;;21.54;51.57;101421.47;5057379;28;20049;-67
2022/05/17 07:15:48;;;;;;;9.70;2.65;;;;;;;22.05;50.95;101414.47;5067195;28;20063;-67
2022/05/17 07:18:18;;;;;;;14.82;2.65;;;;;;;21.83;50.79;101411.63;5067756;28;20044;-66
2022/05/17 07:20:46;;;;;;;7.60;2.78;;;;;;;22.22;51.45;101405.53;5041970;28;20533;-66
2022/05/17 07:23:16;;;;;;;10.80;3.28;;;;;;;22.69;50.19;101401.50;5048870;28;20080;-66
2022/05/17 07:25:45;;;;;;;8.05;2.40;;;;;;;22.58;49.13;101403.34;5052547;28;20481;-67
2022/05/17 07:28:18;;;;;;;11.48;2.83;;;;;;;22.48;49.31;101409.56;5052919;28;20072;-67
2022/05/17 07:30:47;;;;;;;9.52;2.60;;;;;;;22.93;48.81;101413.09;5059345;28;20067;-65
2022/05/17 07:33:15;;;;;;;11.20;3.10;;;;;;;23.15;47.28;101417.78;5058382;28;20064;-65
2022/05/17 07:35:42;;;;;;;10.55;2.70;;;;;;;23.34;47.06;101409.25;5044681;28;20052;-67
2022/05/17 07:38:11;;;;;;;12.10;2.85;;;;;;;23.10;46.71;101406.09;5051594;28;20041;-67
2022/05/17 07:40:38;;;;;;;9.52;2.78;;;;;;;23.59;46.57;101415.16;5084414;28;20056;-67
2022/05/17 07:43:06;;;;;;;9.45;2.70;;;;;;;23.53;45.93;101408.28;5052739;28;20063;-66
2022/05/17 07:45:33;;;;;;;10.48;2.58;;;;;;;23.37;45.64;101411.31;5052621;28;20040;-67
2022/05/17 07:48:02;;;;;;;11.20;2.67;;;;;;;23.49;45.25;101409.41;5061819;28;20059;-63
2022/05/17 07:50:29;;;;;;;9.32;2.70;;;;;;;23.57;44.60;101406.31;5047654;28;20041;-63
2022/05/17 07:52:57;;;;;;;12.40;3.30;;;;;;;23.76;44.06;101417.38;5044710;28;20089;-63
2022/05/17 07:55:24;;;;;;;17.27;3.85;;;;;;;23.90;43.53;101399.81;5048490;28;20060;-64
2022/05/17 07:57:52;;;;;;;8.45;3.05;;;;;;;23.88;44.01;101410.66;5061217;28;20053;-65
2022/05/17 08:00:19;;;;;;;15.32;3.17;;;;;;;24.38;43.11;101402.31;5050952;28;20144;-65
2022/05/17 08:02:47;;;;;;;17.88;3.38;;;;;;;24.22;43.27;101404.56;5054169;28;20516;-64
2022/05/17 08:05:15;;;;;;;13.25;2.20;;;;;;;24.18;37.52;101406.53;5050557;28;20049;-64
2022/05/17 08:07:42;;;;;;;7.65;2.38;;;;;;;24.21;38.40;101411.41;5047698;28;20045;-64
2022/05/17 08:10:10;;;;;;;7.38;2.83;;;;;;;23.95;38.81;101417.19;5051945;28;20056;-64
2022/05/17 08:12:38;;;;;;;6.93;2.30;;;;;;;23.94;38.89;101409.91;5054982;28;20353;-66
2022/05/17 08:15:06;;;;;;;8.63;2.42;;;;;;;24.13;38.80;101406.13;5047492;28;20067;-65
2022/05/17 08:17:33;;;;;;;8.65;2.35;;;;;;;23.85;38.08;101409.41;5066594;28;20053;-65
2022/05/17 08:20:01;;;;;;;9.82;2.53;;;;;;;24.25;38.33;101405.81;5080245;28;20068;-64
2022/05/17 08:22:28;;;;;;;17.90;2.67;;;;;;;24.06;38.67;101408.88;5052383;28;20052;-65
2022/05/17 08:27:42;;;;;;;11.13;2.33;;;;;;;24.45;37.08;101407.19;5045543;28;20064;-64
2022/05/17 08:30:17;;;;;;;11.50;2.58;;;;;;;24.28;36.54;101414.28;5053384;28;20044;-64
2022/05/17 08:35:50;;;;;;;11.43;2.20;;;;;;;24.46;36.42;101403.97;5044487;28;20064;-64
2022/05/17 08:38:22;;;;;;;13.20;2.17;;;;;;;24.59;37.54;101400.84;5050878;28;20052;-65
2022/05/17 08:40:53;;;;;;;10.43;2.47;;;;;;;24.10;37.04;101409.69;5052712;28;20049;-63
2022/05/17 08:43:29;;;;;;;24.75;2.72;;;;;;;24.12;36.17;101402.47;5056516;28;20063;-67
2022/05/17 08:45:57;;;;;;;9.40;2.13;;;;;;;24.29;35.47;101401.81;5051882;28;20061;-67
2022/05/17 08:48:28;;;;;;;13.30;2.30;;;;;;;24.04;32.54;101406.41;5084762;28;20053;-68
2022/05/17 08:50:56;;;;;;;6.65;1.73;;;;;;;24.17;33.14;101404.13;5055142;28;20068;-67
2022/05/17 08:53:23;;;;;;;6.90;2.05;;;;;;;24.35;33.70;101389.00;5064995;28;20500;-71
2022/05/17 08:55:51;;;;;;;9.15;2.13;;;;;;;24.58;33.54;101391.59;5064562;28;20060;-68
2022/05/17 08:58:24;;;;;;;14.73;2.72;;;;;;;24.44;34.66;101388.66;5051084;28;20111;-68
2022/05/17 09:01:06;;;;;;;9.75;2.30;;;;;;;24.51;34.31;101388.72;5059209;28;20044;-66
2022/05/17 09:04:01;;;;;;;7.88;2.33;;;;;;;24.85;34.31;101389.34;5056652;28;20407;-67
2022/05/17 09:06:50;;;;;;;5.78;2.00;;;;;;;24.56;33.26;101379.09;5045936;28;20048;-67
2022/05/17 09:09:50;;;;;;;12.77;2.78;;;;;;;24.40;34.03;101385.84;5062091;28;20049;-66
2022/05/17 09:12:53;;;;;;;10.60;2.70;;;;;;;24.30;34.55;101388.56;5053363;28;20056;-66
2022/05/17 09:15:21;;;;;;;16.42;3.50;;;;;;;24.27;34.85;101386.50;5040291;28;20057;-65
2022/05/17 09:17:53;;;;;;;10.73;3.20;;;;;;;24.34;35.40;101383.75;5050882;28;20540;-66
2022/05/17 09:20:28;;;;;;;14.77;3.45;;;;;;;24.57;35.44;101384.31;5057315;28;20439;-65
2022/05/17 09:22:55;;;;;;;10.88;3.55;;;;;;;24.59;34.91;101379.09;5027756;28;20068;-69
2022/05/17 09:25:49;;;;;;;14.10;4.07;;;;;;;24.46;35.53;101381.44;5031587;28;20043;-72
2022/05/17 09:28:25;;;;;;;13.80;3.85;;;;;;;24.56;35.97;101373.44;5072785;28;20053;-71
2022/05/17 09:31:17;;;;;;;10.63;3.83;;;;;;;24.79;35.41;101376.84;5046729;28;20060;-64
2022/05/17 09:33:47;;;;;;;10.30;3.03;;;;;;;25.09;34.52;101374.59;5011661;28;20437;-66
2022/05/17 09:36:32;;;;;;;11.43;2.80;;;;;;;25.15;34.92;101368.19;5046547;28;20056;-71
2022/05/17 09:39:00;;;;;;;7.60;2.55;;;;;;;25.22;33.95;101367.41;5044429;28;20060;-66
2022/05/17 09:41:35;;;;;;;11.38;2.30;;;;;;;24.63;34.93;101362.22;5030316;28;20057;-65
2022/05/17 09:44:25;;;;;;;8.38;1.85;;;;;;;24.72;33.68;101362.72;5046277;28;20930;-66
2022/05/17 09:47:00;;;;;;;8.07;2.17;;;;;;;24.70;33.28;101367.94;5043543;28;20060;-66
2022/05/17 09:52:34;;;;;;;7.10;1.70;;;;;;;25.01;33.02;101361.66;5048218;28;20468;-65
2022/05/17 09:55:06;;;;;;;9.90;2.10;;;;;;;25.08;32.67;101368.16;5046151;28;20049;-67
2022/05/17 09:57:34;;;;;;;9.05;2.00;;;;;;;25.10;32.83;101357.28;5043642;28;20049;-67
2022/05/17 10:00:12;;;;;;;6.25;1.50;;;;;;;25.20;32.26;101359.34;5067372;28;20591;-66
2022/05/17 10:03:03;;;;;;;10.73;1.83;;;;;;;25.17;32.08;101362.97;5052968;28;20048;-66
2022/05/17 10:05:37;;;;;;;4.20;1.38;;;;;;;25.02;31.87;101352.81;5049962;28;20064;-67
2022/05/17 10:08:25;;;;;;;7.82;1.63;;;;;;;24.96;32.70;101357.22;5050503;28;20057;-67
2022/05/17 10:11:02;;;;;;;5.30;1.23;;;;;;;25.00;32.63;101368.53;5055493;28;20049;-67
2022/05/17 10:14:08;;;;;;;2.67;1.10;;;;;;;25.16;32.30;101360.50;5051628;28;20069;-68
2022/05/17 10:16:55;;;;;;;3.00;1.10;;;;;;;24.77;32.29;101351.91;5043631;28;20053;-67
2022/05/17 10:19:40;;;;;;;5.53;1.58;;;;;;;25.08;32.39;101339.13;5048836;28;20060;-67
2022/05/17 10:22:35;;;;;;;5.88;1.90;;;;;;;25.25;32.19;101349.69;5060438;28;20048;-67
2022/05/17 10:25:28;;;;;;;7.32;2.00;;;;;;;25.36;32.40;101351.38;5057179;28;20401;-67
2022/05/17 10:27:59;;;;;;;10.25;2.28;;;;;;;25.26;31.83;101334.38;5053005;28;20061;-66
2022/05/17 10:30:51;;;;;;;6.95;1.65;;;;;;;25.54;32.11;101332.47;5070907;28;20045;-65
2022/05/17 10:33:30;;;;;;;5.93;1.50;;;;;;;25.69;31.71;101324.84;5091457;28;20049;-67
2022/05/17 10:36:03;;;;;;;6.47;1.40;;;;;;;25.68;31.16;101326.06;5055324;28;20061;-67
2022/05/17 10:38:38;;;;;;;9.13;1.80;;;;;;;25.35;30.93;101327.16;5053893;28;20056;-67
2022/05/17 10:41:11;;;;;;;5.47;1.48;;;;;;;25.94;30.98;101314.38;5081083;28;20063;-66
2022/05/17 10:43:41;;;;;;;8.73;1.63;;;;;;;25.98;30.58;101318.00;5062307;28;20041;-67
2022/05/17 10:46:24;;;;;;;8.93;3.90;;;;;;;25.99;31.27;101315.97;5051282;28;20075;-67
2022/05/17 10:49:07;;;;;;;5.43;1.42;;;;;;;25.51;31.04;101310.69;5058540;28;20103;-66
2022/05/17 10:51:53;;;;;;;5.53;1.70;;;;;;;25.50;31.85;101305.47;5051143;28;20044;-68
2022/05/17 10:55:02;;;;;;;9.75;2.60;;;;;;;25.67;31.54;101301.03;5058829;28;20040;-66
2022/05/17 10:58:03;;;;;;;10.65;2.90;;;;;;;25.63;31.43;101292.56;5045186;28;20064;-69
2022/05/17 11:00:40;;;;;;;6.28;2.00;;;;;;;25.83;31.17;101295.81;5056722;28;20404;-67
2022/05/17 11:03:10;;;;;;;8.23;2.08;;;;;;;25.89;32.05;101305.50;5054001;28;20053;-63
2022/05/17 11:06:08;;;;;;;6.88;1.75;;;;;;;25.95;31.87;101293.41;5051434;28;20049;-64
2022/05/17 11:09:11;;;;;;;6.43;1.80;;;;;;;26.15;31.52;101293.81;5061429;28;20051;-66
2022/05/17 11:11:51;;;;;;;5.45;1.80;;;;;;;26.08;31.71;101286.13;5051058;28;21706;-66
2022/05/17 11:14:27;;;;;;;7.63;2.22;;;;;;;26.48;31.45;101290.53;5061033;28;20056;-66
2022/05/17 11:17:04;;;;;;;6.07;1.60;;;;;;;26.20;31.34;101288.56;5063279;28;20059;-66
2022/05/17 11:19:42;;;;;;;8.50;2.00;;;;;;;26.53;30.99;101273.16;5056859;28;20053;-64
2022/05/17 11:22:18;;;;;;;8.15;2.03;;;;;;;26.47;31.06;101269.13;5063772;28;20041;-66
2022/05/17 11:24:58;;;;;;;7.50;2.40;;;;;;;26.50;31.62;101265.50;5077364;28;20059;-65
2022/05/17 11:27:46;;;;;;;6.80;2.50;;;;;;;26.76;32.94;101259.38;5047685;28;20124;-66
2022/05/17 11:30:16;;;;;;;6.90;3.63;;;;;;;26.84;32.84;101263.78;5054563;28;20083;-65
2022/05/17 11:33:09;;;;;;;8.57;4.05;;;;;;;27.19;32.75;101257.94;5055119;28;20045;-65
2022/05/17 11:35:57;;;;;;;7.85;2.20;;;;;;;27.02;33.23;101258.03;5046148;28;20138;-64
2022/05/17 11:38:37;;;;;;;8.93;2.65;;;;;;;26.89;33.28;101257.69;5046156;28;20403;-64
2022/05/17 11:41:07;;;;;;;8.70;2.38;;;;;;;26.89;33.44;101262.53;5050373;28;20048;-66
2022/05/17 11:43:46;;;;;;;8.25;2.65;;;;;;;26.88;33.21;101249.63;5054140;28;20048;-65
2022/05/17 11:46:30;;;;;;;6.68;2.08;;;;;;;26.83;33.40;101261.38;5057230;28;20056;-65
2022/05/17 11:48:58;;;;;;;;;;;;;;;26.55;33.49;101250.94;5053688;28;20494;-65
2022/05/17 11:51:31;;;;;;;11.07;2.30;;;;;;;26.58;33.96;101245.28;5055122;28;19932;-65
2022/05/17 11:54:00;;;;;;;11.13;2.75;;;;;;;26.22;34.15;101243.75;5051463;28;20057;-64
2022/05/17 11:56:28;;;;;;;8.70;2.70;;;;;;;26.41;34.05;101240.47;5061140;28;20066;-65
2022/05/17 11:59:23;;;;;;;6.55;2.28;;;;;;;26.62;34.29;101240.41;5050733;28;20057;-65